createdAt,value
2023-02-09T00:04:37.350Z,24.4
2023-02-09T00:09:37.541Z,24.6
2023-02-09T00:14:37.342Z,21.3
2023-02-09T00:19:37.560Z,18.6
2023-02-09T00:24:37.342Z,22.6
2023-02-09T00:29:37.430Z,22.6
2023-02-09T00:34:37.372Z,21.8
2023-02-09T00:39:37.563Z,23.2
2023-02-09T00:44:37.403Z,24.5
2023-02-09T00:49:37.465Z,23.8
2023-02-09T00:54:37.469Z,18.4
2023-02-09T00:59:37.567Z,18.4
2023-02-09T01:04:37.458Z,23.6
2023-02-09T01:09:37.580Z,22.9
2023-02-09T01:14:37.423Z,25.1
2023-02-09T01:19:37.652Z,22.9
2023-02-09T01:24:37.442Z,28.2
2023-02-09T01:29:37.607Z,28.2
2023-02-09T01:34:37.418Z,21.7
2023-02-09T01:39:37.617Z,20.9
2023-02-09T01:44:37.436Z,22.6
2023-02-09T01:49:37.694Z,19.4
2023-02-09T01:54:37.471Z,18.7
2023-02-09T01:59:37.684Z,18.7
2023-02-09T02:04:37.515Z,18.2
2023-02-09T02:09:37.818Z,15.8
2023-02-09T02:14:37.529Z,19.7
2023-02-09T02:19:37.690Z,14.9
2023-02-09T02:24:37.497Z,16.4
2023-02-09T02:29:37.713Z,16.4
2023-02-09T02:34:37.527Z,15.7
2023-02-09T02:39:37.739Z,20.8
2023-02-09T02:44:37.546Z,18.2
2023-02-09T02:49:37.796Z,13.7
2023-02-09T02:54:37.563Z,19.7
2023-02-09T02:59:37.750Z,19.7
2023-02-09T03:04:37.573Z,21.5
2023-02-09T03:09:37.744Z,27.0
2023-02-09T03:14:37.563Z,27.5
2023-02-09T03:19:37.725Z,29.7
2023-02-09T03:24:37.608Z,27.9
2023-02-09T03:29:37.809Z,27.9
2023-02-09T03:34:37.648Z,31.0
2023-02-09T03:39:37.807Z,31.0
2023-02-09T03:44:37.623Z,19.9
2023-02-09T03:49:37.808Z,22.1
2023-02-09T03:54:37.641Z,23.2
2023-02-09T03:59:37.891Z,23.2
2023-02-09T04:04:37.646Z,18.6
2023-02-09T04:09:37.856Z,17.4
2023-02-09T04:14:37.667Z,22.3
2023-02-09T04:19:37.865Z,20.6
2023-02-09T04:24:37.712Z,20.8
2023-02-09T04:29:37.866Z,20.8
2023-02-09T04:34:37.697Z,18.8
2023-02-09T04:39:37.883Z,18.2
2023-02-09T04:44:37.688Z,12.2
2023-02-09T04:49:37.890Z,15.6
2023-02-09T04:54:37.731Z,18.3
2023-02-09T04:59:37.893Z,18.3
2023-02-09T05:04:37.745Z,14.7
2023-02-09T05:09:38.047Z,13.8
2023-02-09T05:14:37.724Z,14.6
2023-02-09T05:19:37.915Z,11.8
2023-02-09T05:24:37.782Z,17.8
2023-02-09T05:29:37.918Z,17.8
2023-02-09T05:34:37.774Z,12.7
2023-02-09T05:39:37.957Z,11.8
2023-02-09T05:44:37.820Z,10.5
2023-02-09T05:49:38.188Z,11.8
2023-02-09T05:54:37.824Z,17.1
2023-02-09T05:59:37.973Z,17.1
2023-02-09T06:04:37.801Z,12.8
2023-02-09T06:09:37.990Z,9.9
2023-02-09T06:14:37.834Z,11.6
2023-02-09T06:19:37.869Z,10.2
2023-02-09T06:24:37.825Z,22.0
2023-02-09T06:29:37.980Z,22.0
2023-02-09T06:34:37.846Z,10.2
2023-02-09T06:39:38.038Z,8.9
2023-02-09T06:44:37.855Z,7.4
2023-02-09T06:49:38.054Z,7.2
2023-02-09T06:54:37.884Z,6.7
2023-02-09T06:59:38.082Z,6.7
2023-02-09T07:04:37.903Z,9.5
2023-02-09T07:09:38.285Z,12.8
2023-02-09T07:14:37.921Z,10.3
2023-02-09T07:19:37.985Z,5.1
2023-02-09T07:24:37.937Z,6.3
2023-02-09T07:29:38.135Z,6.3
2023-02-09T07:34:37.927Z,4.8
2023-02-09T07:39:38.143Z,6.7
2023-02-09T07:44:37.960Z,10.5
2023-02-09T07:49:38.104Z,7.7
2023-02-09T07:54:37.948Z,6.2
2023-02-09T07:59:38.114Z,6.2
2023-02-09T08:04:38.076Z,6.9
2023-02-09T08:09:38.145Z,6.3
2023-02-09T08:14:37.988Z,6.8
2023-02-09T08:19:38.333Z,6.3
2023-02-09T08:24:38.024Z,7.4
2023-02-09T08:29:38.198Z,7.4
2023-02-09T08:34:38.049Z,8.6
2023-02-09T08:39:38.198Z,6.5
2023-02-09T08:44:38.026Z,6.4
2023-02-09T08:49:38.227Z,9.2
2023-02-09T08:54:38.061Z,10.4
2023-02-09T08:59:38.258Z,10.4
2023-02-09T09:04:38.073Z,7.0
2023-02-09T09:09:38.200Z,8.8
2023-02-09T09:14:38.071Z,7.1
2023-02-09T09:19:38.195Z,7.2
2023-02-09T09:24:38.070Z,8.8
2023-02-09T09:29:38.230Z,8.8
2023-02-09T09:34:38.073Z,7.7
2023-02-09T09:39:38.187Z,11.8
2023-02-09T09:44:38.122Z,9.9
2023-02-09T09:49:38.243Z,8.8
2023-02-09T09:54:38.100Z,11.1
2023-02-09T09:59:38.195Z,11.1
2023-02-09T10:04:38.169Z,12.6
2023-02-09T10:09:38.210Z,8.6
2023-02-09T10:14:38.151Z,9.2
2023-02-09T10:19:38.273Z,13.0
2023-02-09T10:24:38.168Z,8.0
2023-02-09T10:29:38.273Z,8.0
2023-02-09T10:34:38.222Z,6.9
2023-02-09T10:39:38.412Z,14.4
2023-02-09T10:44:40.183Z,17.8
2023-02-09T10:49:38.630Z,10.0
2023-02-09T10:54:38.200Z,9.6
2023-02-09T10:59:38.538Z,9.6
2023-02-09T11:04:38.269Z,10.4
2023-02-09T11:09:38.647Z,14.4
2023-02-09T11:14:38.209Z,9.8
2023-02-09T11:19:38.329Z,19.2
2023-02-09T11:24:38.255Z,13.8
2023-02-09T11:29:38.346Z,13.8
2023-02-09T11:34:38.239Z,17.6
2023-02-09T11:39:38.412Z,16.1
2023-02-09T11:44:38.304Z,10.8
2023-02-09T11:49:38.765Z,12.1
2023-02-09T11:54:38.305Z,9.0
2023-02-09T11:59:38.469Z,9.0
2023-02-09T12:04:38.286Z,21.4
2023-02-09T12:09:38.478Z,16.5
2023-02-09T12:14:38.310Z,20.1
2023-02-09T12:19:38.488Z,9.2
2023-02-09T12:24:38.326Z,7.7
2023-02-09T12:29:38.486Z,7.7
2023-02-09T12:34:38.368Z,11.1
2023-02-09T12:39:38.801Z,9.9
2023-02-09T12:44:38.329Z,12.6
2023-02-09T12:49:38.727Z,14.0
2023-02-09T12:54:38.362Z,10.2
2023-02-09T12:59:38.849Z,10.2
2023-02-09T13:04:38.366Z,20.1
2023-02-09T13:09:38.853Z,14.4
2023-02-09T13:14:38.420Z,10.7
2023-02-09T13:19:47.418Z,12.5
2023-02-09T13:24:38.403Z,10.6
2023-02-09T13:29:38.881Z,10.6
2023-02-09T13:34:38.414Z,13.5
2023-02-09T13:39:38.784Z,9.1
2023-02-09T13:44:38.438Z,15.2
2023-02-09T13:49:38.838Z,14.6
2023-02-09T13:54:38.465Z,14.7
2023-02-09T13:59:38.893Z,14.7
2023-02-09T14:04:38.467Z,14.4
2023-02-09T14:09:38.896Z,10.6
2023-02-09T14:14:38.494Z,14.6
2023-02-09T14:19:38.936Z,10.2
2023-02-09T14:24:38.519Z,13.5
2023-02-09T14:29:38.876Z,13.5
2023-02-09T14:34:38.463Z,10.4
2023-02-09T14:39:38.908Z,9.4
2023-02-09T14:44:38.541Z,12.4
2023-02-09T14:49:38.703Z,10.4
2023-02-09T14:54:38.548Z,6.3
2023-02-09T14:59:38.586Z,6.3
2023-02-09T15:04:38.560Z,8.4
2023-02-09T15:09:39.044Z,9.1
2023-02-09T15:14:38.556Z,7.6
2023-02-09T15:19:38.968Z,12.9
2023-02-09T15:24:38.591Z,8.0
2023-02-09T15:29:38.966Z,8.0
2023-02-09T15:34:38.575Z,9.0
2023-02-09T15:39:38.751Z,9.4
2023-02-09T15:44:38.578Z,8.7
2023-02-09T15:49:38.982Z,8.5
2023-02-09T15:54:38.590Z,8.9
2023-02-09T15:59:38.767Z,8.9
2023-02-09T16:04:38.606Z,11.5
2023-02-09T16:09:39.023Z,13.7
2023-02-09T16:14:38.675Z,9.6
2023-02-09T16:19:39.131Z,10.5
2023-02-09T16:24:38.640Z,9.8
2023-02-09T16:29:39.056Z,9.8
2023-02-09T16:34:38.678Z,12.6
2023-02-09T16:39:39.072Z,12.4
2023-02-09T16:44:38.703Z,10.9
2023-02-09T16:49:39.147Z,8.4
2023-02-09T16:54:38.662Z,9.5
2023-02-09T16:59:39.084Z,9.5
2023-02-09T17:04:38.676Z,7.6
2023-02-09T17:09:38.871Z,8.2
2023-02-09T17:14:38.712Z,7.9
2023-02-09T17:19:47.950Z,8.1
2023-02-09T17:24:38.751Z,8.4
2023-02-09T17:29:39.155Z,8.4
2023-02-09T17:34:38.764Z,6.9
2023-02-09T17:39:39.281Z,11.0
2023-02-09T17:44:45.914Z,14.4
2023-02-09T17:49:39.167Z,12.1
2023-02-09T17:54:38.798Z,7.3
2023-02-09T17:59:39.270Z,7.3
2023-02-09T18:04:38.785Z,12.4
2023-02-09T18:09:39.221Z,16.3
2023-02-09T18:14:38.789Z,8.9
2023-02-09T18:19:39.217Z,10.6
2023-02-09T18:24:38.820Z,10.9
2023-02-09T18:29:39.218Z,10.9
2023-02-09T18:34:38.832Z,9.8
2023-02-09T18:39:39.237Z,12.8
2023-02-09T18:44:38.852Z,15.7
2023-02-09T18:49:39.354Z,7.6
2023-02-09T18:54:38.870Z,12.3
2023-02-09T18:59:39.257Z,12.3
2023-02-09T19:04:38.862Z,15.3
2023-02-09T19:09:39.277Z,12.0
2023-02-09T19:14:38.934Z,14.2
2023-02-09T19:19:39.280Z,14.4
2023-02-09T19:24:38.899Z,14.0
2023-02-09T19:29:39.288Z,14.0
2023-02-09T19:34:38.897Z,12.0
2023-02-09T19:39:39.321Z,11.6
2023-02-09T19:44:38.912Z,14.5
2023-02-09T19:49:39.391Z,22.0
2023-02-09T19:54:38.962Z,13.7
2023-02-09T19:59:39.400Z,13.7
2023-02-09T20:04:38.983Z,13.5
2023-02-09T20:09:39.379Z,10.8
2023-02-09T20:14:38.973Z,12.3
2023-02-09T20:19:39.382Z,19.9
2023-02-09T20:24:38.991Z,8.6
2023-02-09T20:29:39.166Z,8.6
2023-02-09T20:34:38.980Z,15.5
2023-02-09T20:39:39.398Z,12.5
2023-02-09T20:44:39.015Z,13.6
2023-02-09T20:49:39.185Z,15.0
2023-02-09T20:54:38.994Z,12.2
2023-02-09T20:59:39.521Z,12.2
2023-02-09T21:04:39.081Z,11.0
2023-02-09T21:09:39.370Z,17.1
2023-02-09T21:14:42.070Z,19.1
2023-02-09T21:19:39.459Z,18.1
2023-02-09T21:24:39.116Z,15.3
2023-02-09T21:29:39.247Z,15.3
2023-02-09T21:34:39.111Z,13.3
2023-02-09T21:39:39.302Z,11.6
2023-02-09T21:44:39.075Z,16.4
2023-02-09T21:49:39.295Z,25.0
2023-02-09T21:54:39.092Z,22.0
2023-02-09T21:59:39.302Z,22.0
2023-02-09T22:04:39.131Z,14.6
2023-02-09T22:09:39.324Z,20.1
2023-02-09T22:14:39.132Z,14.3
2023-02-09T22:19:39.323Z,8.5
2023-02-09T22:24:39.207Z,18.2
2023-02-09T22:29:39.474Z,18.2
2023-02-09T22:34:39.153Z,17.8
2023-02-09T22:39:39.329Z,17.4
2023-02-09T22:44:39.191Z,17.9
2023-02-09T22:49:39.327Z,15.0
2023-02-09T22:54:39.171Z,14.1
2023-02-09T22:59:39.387Z,14.1
2023-02-09T23:04:39.207Z,17.3
2023-02-09T23:09:39.558Z,12.4
2023-02-09T23:14:39.207Z,12.7
2023-02-09T23:19:39.416Z,23.0
2023-02-09T23:24:39.263Z,15.0
2023-02-09T23:29:39.449Z,15.0
2023-02-09T23:34:39.280Z,15.6
2023-02-09T23:39:39.795Z,17.9
2023-02-09T23:44:39.307Z,9.0
2023-02-09T23:49:39.652Z,26.0
2023-02-09T23:54:39.308Z,21.3
2023-02-09T23:59:39.454Z,21.3
